Bloomfield, NM (87413)

8:12 PM MST on November 20, 2014 (GMT -0700)
Crouch Mesa | Change Station
CLOSE
Current Station
Personal Weather Station
Location: Aztec, NM
Elevation: 5876 ft
Nearby Weather Stations

Elev 5876 ft 36.77 °N, 108.06 °W | Updated 5 seconds ago

Partly Cloudy
Partly Cloudy
39.7 °F
Feels Like 37 °F
N
3.8
Wind Variable Wind from SW
Gusts 3.8 mph

Today
High -- | Low -- °F
--% Chance of Precip.
Yesterday
High -- | Low -- °F
Precip. -- in
6:55 AM 4:59 PM
Waning Crescent, 2% visible
Pressure 30.12 in
Visibility 10.0 miles
Clouds Clear
Windchill 37 °F
Dew Point 11 °F
Humidity 30%
Rainfall 0.00 in
Snow Depth Not available.
UV 0 out of 12
Pollen .30 out of 12
Air Quality Not available.
Flu Activity Not available.
METAR KFMN 210253Z 29004KT 10SM CLR 02/M11 A3007 RMK AO2 SLP199 T00221106 51006

More Conditions Fewer Conditions

Pressure 30.12 in
Visibility 10.0 miles
Clouds Clear
Windchill 37 °F
Dew Point 11 °F
Humidity 30%
Rainfall 0.00 in
Snow Depth Not available.
UV 0 out of 12
Pollen .30 out of 12
Air Quality Not available.
Flu Activity Not available.
METAR KFMN 210253Z 29004KT 10SM CLR 02/M11 A3007 RMK AO2 SLP199 T00221106 51006

More Conditions Fewer Conditions

10-Day Weather Forecast

Almanac

Astronomy

Nov. 20, 2014 Rise Set
Actual Time
Civil Twilight
Nautical Twilight
Astronomical Twilight
Moon
Length of Visible Light
Length of Day
Tomorrow will be .
, % of the Moon is Illuminated

Today's Extremes

State Highs State Lows

Community

WunderPhotos

Upload Photos

1,772,610 photos uploaded!

WunderBlogs® & News

Nearby

Air Quality

  Air Quality AQ Index Pollutant
Not available.

Snow Depth

Station Depth Elevation

Earthquake Activity

City Distance Mag. Time & Date
Minimum magnitude displayed is 2.5.

Coastal Water Temperatures

Place Temperature

Nearby Weather Stations